Time;durP1;ratioP1;P1;durP2;ratioP2;P2;SDS_P1;SDS_P2;PMS_P1;PMS_P2;Temp;Humidity;BMP_temperature;BMP_pressure;BME280_temperature;BME280_humidity;BME280_pressure;Samples;Min_cycle;Max_cycle;Signal;HPM_P1;HPM_P2
2023/01/29 03:54:56;;;;;;;45.00;19.10;;;;;;;-6.91;100.00;99942.06;104172;1307;545481;-65
2023/01/29 03:57:34;;;;;;;40.70;20.40;;;;;;;-6.78;100.00;99951.65;106368;1289;22548;-65
2023/01/29 04:00:21;;;;;;;45.10;21.30;;;;;;;-6.62;100.00;99942.98;106327;1291;25327;-65
2023/01/29 04:03:16;;;;;;;40.00;19.30;;;;;;;-6.45;100.00;99946.52;106337;1282;23038;-65
2023/01/29 04:05:50;;;;;;;33.70;17.30;;;;;;;-6.28;100.00;99948.98;106397;1288;22694;-65
2023/01/29 04:08:27;;;;;;;30.50;16.20;;;;;;;-6.14;100.00;99947.80;109266;1288;191573;-66
2023/01/29 04:10:59;;;;;;;32.70;16.20;;;;;;;-6.00;100.00;99949.40;109396;1289;22311;-66
2023/01/29 04:13:28;;;;;;;32.10;15.10;;;;;;;-5.96;100.00;99945.05;109301;1282;22352;-66
2023/01/29 04:16:00;;;;;;;29.70;15.40;;;;;;;-5.92;100.00;99941.24;109288;1284;22242;-66
2023/01/29 04:18:54;;;;;;;31.40;16.20;;;;;;;-5.80;100.00;99937.34;109172;1288;22230;-67
2023/01/29 04:21:30;;;;;;;29.40;16.50;;;;;;;-5.72;100.00;99936.72;109960;1281;22241;-66
2023/01/29 04:23:59;;;;;;;30.50;16.00;;;;;;;-5.63;100.00;99943.60;109782;1278;23611;-66
2023/01/29 04:26:46;;;;;;;27.80;16.10;;;;;;;-5.58;100.00;99943.14;109888;1282;22226;-66
2023/01/29 04:29:21;;;;;;;26.50;16.30;;;;;;;-5.56;100.00;99945.63;109905;1277;22222;-66
2023/01/29 04:32:17;;;;;;;32.10;17.00;;;;;;;-5.57;100.00;99947.23;109877;1281;22234;-66
2023/01/29 04:34:46;;;;;;;30.30;16.20;;;;;;;-5.60;100.00;99948.38;109922;1278;22643;-67
2023/01/29 04:37:41;;;;;;;29.90;16.70;;;;;;;-5.55;100.00;99947.13;109899;1279;23702;-66
2023/01/29 04:40:13;;;;;;;30.80;16.50;;;;;;;-5.45;100.00;99951.02;109779;1281;22233;-66
2023/01/29 04:42:53;;;;;;;35.70;18.80;;;;;;;-5.36;100.00;99948.52;109913;1281;23436;-66
2023/01/29 04:45:25;;;;;;;34.20;18.20;;;;;;;-5.30;100.00;99946.52;109898;1281;23018;-66
2023/01/29 04:48:14;;;;;;;31.30;17.10;;;;;;;-5.28;100.00;99952.94;109901;1281;22300;-67
2023/01/29 04:50:54;;;;;;;31.60;17.00;;;;;;;-5.27;100.00;99948.58;109766;1273;22225;-66
2023/01/29 04:53:53;;;;;;;31.40;17.40;;;;;;;-5.21;100.00;99948.81;109782;1281;22462;-66
2023/01/29 04:56:52;;;;;;;34.60;17.40;;;;;;;-5.11;100.00;99946.26;106712;1274;23242;-66
2023/01/29 04:59:29;;;;;;;38.40;19.00;;;;;;;-5.05;100.00;99949.84;107165;1275;22533;-66
2023/01/29 05:01:58;;;;;;;35.10;18.70;;;;;;;-5.08;100.00;99948.92;107266;1280;23012;-65
2023/01/29 05:04:28;;;;;;;36.10;18.00;;;;;;;-5.10;100.00;99949.48;107038;1280;24418;-65
2023/01/29 05:07:00;;;;;;;37.10;19.60;;;;;;;-5.09;100.00;99948.39;107113;1277;23456;-65
2023/01/29 05:09:28;;;;;;;34.30;17.80;;;;;;;-5.04;100.00;99952.38;107171;1278;23279;-64
2023/01/29 05:11:56;;;;;;;36.70;19.10;;;;;;;-4.97;100.00;99952.66;107132;1281;22536;-65
2023/01/29 05:14:25;;;;;;;37.00;17.90;;;;;;;-4.91;100.00;99953.48;107156;1280;25465;-65
2023/01/29 05:16:53;;;;;;;34.50;18.30;;;;;;;-4.92;100.00;99955.45;107196;1281;25480;-67
2023/01/29 05:19:21;;;;;;;35.20;17.70;;;;;;;-4.91;100.00;99962.15;106993;1281;23305;-66
2023/01/29 05:21:49;;;;;;;31.20;16.80;;;;;;;-4.85;100.00;99966.09;107101;1278;23816;-66
2023/01/29 05:24:22;;;;;;;30.40;16.10;;;;;;;-4.76;100.00;99964.59;107072;1281;22584;-66
2023/01/29 05:29:42;;;;;;;28.50;15.30;;;;;;;-4.61;100.00;99969.38;107028;1281;26512;-65
2023/01/29 05:32:10;;;;;;;27.20;16.10;;;;;;;-4.61;100.00;99972.37;106748;1281;23670;-66
2023/01/29 05:34:42;;;;;;;30.30;16.80;;;;;;;-4.60;100.00;99968.77;107064;1280;24126;-66
2023/01/29 05:37:11;;;;;;;29.40;16.00;;;;;;;-4.54;100.00;99966.11;109867;1281;22963;-66
2023/01/29 05:39:39;;;;;;;32.20;15.90;;;;;;;-4.47;100.00;99967.45;109866;1281;22433;-67
2023/01/29 05:42:07;;;;;;;26.40;15.10;;;;;;;-4.40;100.00;99971.69;109871;1279;22457;-66
2023/01/29 05:44:35;;;;;;;28.40;15.90;;;;;;;-4.36;100.00;99972.44;109899;1279;23091;-67
2023/01/29 05:47:04;;;;;;;26.30;15.60;;;;;;;-4.35;100.00;99966.86;109901;1281;22239;-66
2023/01/29 05:49:32;;;;;;;29.20;16.10;;;;;;;-4.36;100.00;99972.85;109866;1281;22184;-66
2023/01/29 05:52:00;;;;;;;27.40;14.90;;;;;;;-4.38;100.00;99972.35;109921;1274;22264;-66
2023/01/29 05:54:29;;;;;;;33.60;17.50;;;;;;;-4.34;100.00;99972.97;109894;1278;23237;-66
2023/01/29 05:56:57;;;;;;;27.50;15.60;;;;;;;-4.29;100.00;99970.39;109918;1281;22391;-66
2023/01/29 05:59:25;;;;;;;27.40;15.70;;;;;;;-4.23;100.00;99972.64;109852;1274;22248;-66
2023/01/29 06:01:53;;;;;;;28.50;15.50;;;;;;;-4.19;100.00;99969.67;109914;1275;22843;-66
2023/01/29 06:04:21;;;;;;;28.70;15.90;;;;;;;-4.19;100.00;99970.90;109899;1275;22188;-67
2023/01/29 06:06:51;;;;;;;28.90;17.10;;;;;;;-4.22;100.00;99974.76;109914;1278;23046;-67
2023/01/29 06:09:19;;;;;;;33.60;17.60;;;;;;;-4.23;100.00;99977.48;109846;1277;22957;-66
2023/01/29 06:11:47;;;;;;;33.10;17.60;;;;;;;-4.17;100.00;99975.30;109899;1275;23073;-66
2023/01/29 06:14:15;;;;;;;33.00;18.00;;;;;;;-4.09;100.00;99973.29;109862;1278;22229;-66
2023/01/29 06:16:43;;;;;;;29.80;16.70;;;;;;;-3.99;100.00;99974.30;109888;1278;22391;-67
2023/01/29 06:19:12;;;;;;;33.40;18.30;;;;;;;-3.92;100.00;99976.70;109847;1273;22218;-66
2023/01/29 06:21:41;;;;;;;35.80;19.10;;;;;;;-3.92;100.00;99975.99;109853;1277;22447;-65
2023/01/29 06:24:09;;;;;;;40.10;20.90;;;;;;;-3.93;100.00;99978.77;109909;1275;22918;-66
2023/01/29 06:26:38;;;;;;;40.90;21.70;;;;;;;-3.94;100.00;99977.84;110141;1274;22338;-66
2023/01/29 06:29:07;;;;;;;40.90;21.90;;;;;;;-3.89;100.00;99980.80;110115;1272;22396;-64
2023/01/29 06:31:35;;;;;;;40.90;21.10;;;;;;;-3.82;100.00;99980.38;110128;1277;22411;-67
2023/01/29 06:34:06;;;;;;;44.10;22.30;;;;;;;-3.77;100.00;99981.23;110111;1273;22361;-66
2023/01/29 06:36:35;;;;;;;37.30;20.10;;;;;;;-3.76;100.00;99979.16;110135;1277;22251;-66
2023/01/29 06:39:03;;;;;;;40.00;20.80;;;;;;;-3.76;100.00;99980.39;110054;1271;22390;-66
2023/01/29 06:41:32;;;;;;;37.60;20.70;;;;;;;-3.69;100.00;99979.05;110095;1277;22342;-64
2023/01/29 06:44:00;;;;;;;39.90;20.80;;;;;;;-3.62;100.00;99978.58;110081;1272;22532;-67
2023/01/29 06:46:29;;;;;;;40.20;19.90;;;;;;;-3.57;100.00;99980.45;110103;1274;22983;-66
2023/01/29 06:48:59;;;;;;;36.70;19.80;;;;;;;-3.59;100.00;99972.50;110106;1277;22272;-65
2023/01/29 06:51:30;;;;;;;38.20;20.10;;;;;;;-3.58;100.00;99972.81;110145;1272;22216;-64
2023/01/29 06:54:07;;;;;;;40.10;21.50;;;;;;;-3.57;100.00;99969.08;110202;1277;22384;-66
2023/01/29 06:56:35;;;;;;;38.60;20.80;;;;;;;-3.50;100.00;99964.27;110058;1271;22893;-66
2023/01/29 06:59:03;;;;;;;40.90;20.10;;;;;;;-3.43;100.00;99966.16;110105;1272;22317;-67
2023/01/29 07:01:32;;;;;;;37.50;20.10;;;;;;;-3.37;100.00;99972.45;110143;1272;22949;-65
2023/01/29 07:04:04;;;;;;;32.50;17.60;;;;;;;-3.36;100.00;99974.65;110085;1273;22438;-66
2023/01/29 07:06:32;;;;;;;37.00;19.80;;;;;;;-3.37;100.00;99974.48;110154;1273;22199;-67
2023/01/29 07:09:02;;;;;;;37.80;19.70;;;;;;;-3.34;100.00;99972.11;110096;1274;23040;-65
2023/01/29 07:11:36;;;;;;;35.80;20.10;;;;;;;-3.27;100.00;99971.46;110139;1273;22248;-66
2023/01/29 07:14:05;;;;;;;34.40;19.10;;;;;;;-3.19;100.00;99972.98;110136;1277;22743;-67
2023/01/29 07:16:33;;;;;;;34.00;19.50;;;;;;;-3.14;100.00;99973.31;110104;1276;22356;-66
2023/01/29 07:19:01;;;;;;;34.80;19.30;;;;;;;-3.11;100.00;99969.38;110296;1270;22346;-67
2023/01/29 07:21:29;;;;;;;36.10;18.70;;;;;;;-3.07;100.00;99971.09;110253;1277;22945;-65
2023/01/29 07:23:59;;;;;;;34.70;19.00;;;;;;;-2.99;100.00;99971.98;110283;1274;22767;-66
2023/01/29 07:26:27;;;;;;;32.70;18.10;;;;;;;-2.95;100.00;99969.16;110349;1273;22451;-66
2023/01/29 07:28:55;;;;;;;35.10;20.10;;;;;;;-2.95;100.00;99975.67;107701;1277;22531;-66
2023/01/29 07:31:23;;;;;;;32.50;19.40;;;;;;;-2.95;100.00;99975.92;107547;1271;22547;-65
2023/01/29 07:33:52;;;;;;;38.00;19.80;;;;;;;-2.95;100.00;99979.48;107469;1277;22526;-66
2023/01/29 07:36:22;;;;;;;33.80;19.00;;;;;;;-2.90;100.00;99981.05;107488;1277;22531;-66
2023/01/29 07:38:51;;;;;;;34.50;18.70;;;;;;;-2.85;100.00;99978.47;107542;1277;25440;-65
2023/01/29 07:41:22;;;;;;;35.50;19.00;;;;;;;-2.85;100.00;99975.30;107473;1274;23494;-65
2023/01/29 12:10:03;;;;;;;21.00;12.20;;;;;;;-1.41;100.00;99819.59;104659;1304;544845;-70
2023/01/29 12:12:40;;;;;;;19.60;11.30;;;;;;;-1.26;100.00;99825.30;107150;1289;23216;-70
2023/01/29 12:15:25;;;;;;;17.90;10.60;;;;;;;-1.07;100.00;99823.23;106932;1281;25364;-70
2023/01/29 12:18:03;;;;;;;14.30;8.70;;;;;;;-0.90;100.00;99820.21;107181;1279;25343;-69
2023/01/29 12:20:46;;;;;;;15.70;9.70;;;;;;;-0.79;100.00;99822.10;107079;1281;22572;-69
2023/01/29 12:23:40;;;;;;;16.10;10.20;;;;;;;-0.74;100.00;99827.17;107020;1283;229241;-70
2023/01/29 12:26:12;;;;;;;17.60;11.30;;;;;;;-0.69;100.00;99822.16;107372;1275;22641;-70
2023/01/29 12:29:12;;;;;;;17.60;10.10;;;;;;;-0.54;100.00;99823.27;106235;1283;25334;-71
2023/01/29 12:31:53;;;;;;;16.80;10.30;;;;;;;-0.39;100.00;99816.01;107435;1279;22541;-69
2023/01/29 12:34:42;;;;;;;17.60;10.80;;;;;;;-0.40;100.00;99819.31;107312;1280;22557;-69
2023/01/29 12:37:44;;;;;;;16.00;10.00;;;;;;;-0.39;100.00;99814.98;107386;1279;25713;-68
2023/01/29 12:40:14;;;;;;;16.30;10.00;;;;;;;-0.31;100.00;99812.27;107419;1275;23273;-69
2023/01/29 12:42:46;;;;;;;14.60;9.70;;;;;;;-0.32;100.00;99809.58;107426;1275;22631;-69
2023/01/29 12:45:19;;;;;;;16.40;9.80;;;;;;;-0.36;100.00;99805.98;107885;1275;22565;-69
2023/01/29 12:48:00;;;;;;;16.20;10.10;;;;;;;-0.33;100.00;99805.38;107920;1275;23176;-69
2023/01/29 12:50:32;;;;;;;16.70;10.20;;;;;;;-0.33;100.00;99802.05;110404;1269;22200;-70
2023/01/29 12:53:18;;;;;;;16.90;10.90;;;;;;;-0.36;100.00;99796.39;110365;1270;23105;-70
2023/01/29 12:55:59;;;;;;;16.60;9.20;;;;;;;-0.30;100.00;99799.16;110381;1270;22332;-70
2023/01/29 12:58:41;;;;;;;17.00;10.40;;;;;;;-0.28;100.00;99795.06;110333;1275;22359;-70
2023/01/29 13:01:33;;;;;;;15.70;10.20;;;;;;;-0.27;100.00;99789.84;110363;1269;22994;-70
2023/01/29 13:04:05;;;;;;;16.00;10.50;;;;;;;-0.24;100.00;99788.61;110379;1275;22287;-69
2023/01/29 13:06:40;;;;;;;16.10;10.20;;;;;;;-0.11;100.00;99783.96;110325;1275;23002;-69
2023/01/29 13:09:12;;;;;;;14.70;9.90;;;;;;;-0.03;100.00;99783.95;110351;1275;22430;-70
2023/01/29 13:12:08;;;;;;;16.40;10.00;;;;;;;-0.08;100.00;99783.23;110364;1272;23127;-69
2023/01/29 13:14:57;;;;;;;16.60;10.80;;;;;;;-0.15;100.00;99786.46;110371;1275;22485;-68
2023/01/29 13:17:57;;;;;;;17.10;11.00;;;;;;;-0.15;100.00;99781.73;110429;1272;22422;-69
2023/01/29 13:20:27;;;;;;;20.50;12.60;;;;;;;-0.11;100.00;99784.79;108534;1276;22598;-69
2023/01/29 13:23:02;;;;;;;19.40;12.10;;;;;;;-0.11;100.00;99783.27;106609;1275;25231;-69
2023/01/29 13:25:30;;;;;;;16.90;10.40;;;;;;;-0.12;100.00;99780.34;106506;1276;24220;-69
2023/01/29 13:27:59;;;;;;;17.40;11.00;;;;;;;-0.14;100.00;99781.52;106527;1276;26129;-69
2023/01/29 13:30:32;;;;;;;20.20;12.90;;;;;;;-0.12;100.00;99782.64;108773;1275;22901;-69
2023/01/29 13:33:09;;;;;;;24.80;15.20;;;;;;;-0.08;100.00;99783.14;110340;1275;22801;-69
2023/01/29 13:35:59;;;;;;;17.40;11.20;;;;;;;-0.09;100.00;99777.96;110341;1275;22874;-70
2023/01/29 13:38:29;;;;;;;28.30;15.80;;;;;;;-0.11;100.00;99778.29;110187;1276;22228;-70
2023/01/29 13:41:05;;;;;;;29.70;15.20;;;;;;;-0.15;100.00;99780.17;107550;1276;26305;-70
2023/01/29 13:43:35;;;;;;;23.40;12.80;;;;;;;-0.14;100.00;99778.44;107084;1276;25233;-69
2023/01/29 13:46:13;;;;;;;32.50;17.00;;;;;;;-0.13;100.00;99779.34;106661;1276;23997;-69
2023/01/29 13:48:46;;;;;;;25.30;13.70;;;;;;;-0.17;100.00;99780.33;110367;1275;22248;-69
2023/01/29 13:51:19;;;;;;;31.20;16.90;;;;;;;-0.25;100.00;99778.81;107316;1275;25403;-70
2023/01/29 13:53:52;;;;;;;22.30;12.80;;;;;;;-0.30;100.00;99783.04;106666;1276;25596;-69
2023/01/29 13:56:34;;;;;;;22.40;13.00;;;;;;;-0.30;100.00;99777.70;106479;1276;26258;-69
2023/01/29 13:59:04;;;;;;;21.30;14.50;;;;;;;-0.27;100.00;99774.12;106559;1274;27625;-69
2023/01/29 14:01:47;;;;;;;17.70;13.20;;;;;;;-0.29;100.00;99772.02;110402;1275;22211;-70
2023/01/29 14:04:21;;;;;;;18.50;11.90;;;;;;;-0.35;100.00;99768.66;110456;1275;23003;-69
2023/01/29 14:07:01;;;;;;;16.30;11.00;;;;;;;-0.41;100.00;99767.61;110391;1275;22191;-69
2023/01/29 14:10:16;;;;;;;16.70;10.00;;;;;;;-0.45;100.00;99762.63;110379;1275;22224;-70
2023/01/29 14:13:20;;;;;;;17.30;11.30;;;;;;;-0.42;100.00;99761.80;110364;1276;22385;-70
2023/01/29 14:15:57;;;;;;;15.40;10.20;;;;;;;-0.42;100.00;99759.95;110391;1276;22931;-70
2023/01/29 14:18:26;;;;;;;15.80;10.10;;;;;;;-0.47;100.00;99752.90;110424;1269;22779;-70
2023/01/29 14:21:05;;;;;;;19.00;11.60;;;;;;;-0.50;100.00;99756.75;110432;1275;22253;-70
2023/01/29 14:23:47;;;;;;;21.70;13.10;;;;;;;-0.52;100.00;99756.73;110452;1275;22228;-69
2023/01/29 14:26:27;;;;;;;22.10;12.90;;;;;;;-0.56;100.00;99760.55;110441;1275;22654;-70
2023/01/29 14:29:15;;;;;;;20.30;12.40;;;;;;;-0.51;100.00;99758.85;110417;1275;22206;-69
2023/01/29 14:32:05;;;;;;;23.70;13.40;;;;;;;-0.44;100.00;99759.66;110410;1271;22279;-69
2023/01/29 14:34:35;;;;;;;19.00;12.10;;;;;;;-0.46;100.00;99759.90;110427;1275;23047;-70
2023/01/29 14:37:15;;;;;;;21.60;13.90;;;;;;;-0.52;100.00;99758.80;110450;1275;22299;-70
2023/01/29 14:39:48;;;;;;;19.80;12.30;;;;;;;-0.57;100.00;99761.14;110448;1275;22230;-69
2023/01/29 14:42:27;;;;;;;21.10;12.70;;;;;;;-0.60;100.00;99764.41;110403;1275;22229;-70
2023/01/29 14:45:20;;;;;;;20.20;12.60;;;;;;;-0.60;100.00;99770.74;110419;1275;22301;-70
2023/01/29 14:47:48;;;;;;;19.40;11.70;;;;;;;-0.58;100.00;99770.67;110408;1275;22279;-70
2023/01/29 14:50:31;;;;;;;18.90;11.60;;;;;;;-0.56;100.00;99768.99;110401;1275;22818;-70
2023/01/29 14:53:18;;;;;;;19.00;11.00;;;;;;;-0.57;100.00;99768.53;110451;1275;22899;-70
2023/01/29 14:55:58;;;;;;;22.50;13.40;;;;;;;-0.62;100.00;99768.73;110437;1275;22217;-69
2023/01/29 14:58:46;;;;;;;20.30;12.60;;;;;;;-0.65;100.00;99772.53;110403;1275;22434;-68
2023/01/29 15:01:34;;;;;;;22.10;13.30;;;;;;;-0.65;100.00;99770.71;110397;1272;22515;-68
2023/01/29 15:04:21;;;;;;;22.70;14.60;;;;;;;-0.61;100.00;99770.66;110409;1269;23205;-69
2023/01/29 15:07:05;;;;;;;24.50;15.50;;;;;;;-0.54;100.00;99770.56;110424;1275;22201;-69
2023/01/29 15:09:36;;;;;;;27.20;16.60;;;;;;;-0.58;100.00;99773.39;110378;1272;23272;-69
2023/01/29 15:12:32;;;;;;;25.10;15.30;;;;;;;-0.64;100.00;99771.63;110429;1275;22341;-69
2023/01/29 15:15:09;;;;;;;22.60;15.40;;;;;;;-0.67;100.00;99779.30;110434;1275;22421;-69
2023/01/29 15:17:40;;;;;;;23.10;14.90;;;;;;;-0.70;100.00;99772.63;110435;1275;22408;-69
2023/01/29 15:20:29;;;;;;;24.00;15.10;;;;;;;-0.65;100.00;99777.71;110378;1275;22647;-69
2023/01/29 15:22:59;;;;;;;21.90;14.10;;;;;;;-0.61;100.00;99774.11;110404;1275;23168;-69
2023/01/29 15:25:27;;;;;;;23.70;14.90;;;;;;;-0.62;100.00;99774.64;110410;1275;22459;-68
2023/01/29 15:27:55;;;;;;;25.10;15.90;;;;;;;-0.67;100.00;99776.51;110204;1275;23191;-69
2023/01/29 15:30:32;;;;;;;21.90;14.10;;;;;;;-0.70;100.00;99776.24;110379;1275;22312;-69
2023/01/29 15:33:01;;;;;;;27.10;16.70;;;;;;;-0.73;100.00;99780.14;110269;1276;22213;-69
2023/01/29 15:35:38;;;;;;;24.50;15.10;;;;;;;-0.74;100.00;99781.11;110415;1276;22310;-69
2023/01/29 15:38:13;;;;;;;21.80;13.90;;;;;;;-0.71;100.00;99776.85;110412;1276;22218;-69
2023/01/29 15:40:52;;;;;;;;;;;;;;;-0.68;100.00;99781.48;110424;1275;22445;-69
2023/01/29 15:43:27;;;;;;;19.20;11.70;;;;;;;-0.77;100.00;99781.89;110410;1275;22332;-69
2023/01/29 15:45:58;;;;;;;19.40;12.00;;;;;;;-0.86;100.00;99780.39;110420;1275;22293;-69
2023/01/29 19:44:18;;;;;;;21.60;11.80;;;;;;;-3.04;100.00;99710.66;103571;1304;545880;-64
2023/01/29 19:46:47;;;;;;;20.40;11.20;;;;;;;-2.91;100.00;99712.41;109612;1273;23109;-65
2023/01/29 19:49:15;;;;;;;19.60;11.00;;;;;;;-2.74;100.00;99712.40;109663;1278;23222;-65
2023/01/29 19:51:44;;;;;;;20.40;10.90;;;;;;;-2.59;100.00;99708.02;109588;1278;22320;-66
2023/01/29 19:54:13;;;;;;;17.80;10.80;;;;;;;-2.45;100.00;99704.27;109668;1286;22380;-65
2023/01/29 19:56:41;;;;;;;18.30;10.90;;;;;;;-2.36;100.00;99702.27;109644;1285;22501;-65
2023/01/29 19:59:10;;;;;;;17.20;9.80;;;;;;;-2.30;100.00;99701.14;109636;1284;178950;-65
2023/01/29 20:01:38;;;;;;;16.90;10.40;;;;;;;-2.24;100.00;99705.52;110051;1279;22855;-65
2023/01/29 20:04:07;;;;;;;16.30;9.60;;;;;;;-2.20;100.00;99703.55;110089;1279;22250;-65
2023/01/29 20:06:35;;;;;;;14.90;9.90;;;;;;;-2.14;100.00;99699.99;110030;1279;23177;-65
2023/01/29 20:09:03;;;;;;;14.10;8.30;;;;;;;-2.04;100.00;99696.36;110045;1279;22313;-65
2023/01/29 20:11:32;;;;;;;12.10;7.40;;;;;;;-1.93;100.00;99696.65;110071;1279;23197;-65
2023/01/29 20:14:02;;;;;;;14.00;7.90;;;;;;;-1.88;100.00;99696.52;110031;1279;22202;-65
2023/01/29 20:16:30;;;;;;;13.00;8.00;;;;;;;-1.87;100.00;99692.98;110011;1278;22209;-65
2023/01/29 20:18:59;;;;;;;13.60;7.60;;;;;;;-1.85;100.00;99695.86;110073;1279;22786;-66
2023/01/29 20:21:45;;;;;;;14.10;8.80;;;;;;;-1.86;100.00;99695.77;110032;1272;22502;-65
2023/01/29 20:24:13;;;;;;;13.10;7.50;;;;;;;-1.88;100.00;99697.82;109967;1279;22482;-65
2023/01/29 20:26:42;;;;;;;12.80;7.90;;;;;;;-1.89;100.00;99699.16;110082;1278;22469;-65
2023/01/29 20:29:12;;;;;;;15.90;8.80;;;;;;;-1.83;100.00;99702.61;109998;1279;22246;-65
2023/01/29 20:31:40;;;;;;;11.30;6.80;;;;;;;-1.76;100.00;99700.20;110054;1272;22488;-65
2023/01/29 20:34:08;;;;;;;14.00;9.50;;;;;;;-1.77;100.00;99704.02;110106;1279;23174;-65
2023/01/29 20:36:37;;;;;;;10.60;6.60;;;;;;;-1.79;100.00;99704.41;110072;1278;23068;-65
2023/01/29 20:39:05;;;;;;;11.70;7.60;;;;;;;-1.80;100.00;99704.08;110013;1280;23293;-65
2023/01/29 20:41:35;;;;;;;13.40;8.50;;;;;;;-1.80;100.00;99705.17;110037;1279;22293;-65
2023/01/29 20:44:03;;;;;;;16.00;8.30;;;;;;;-1.80;100.00;99705.52;109955;1281;22737;-65
2023/01/29 20:46:34;;;;;;;14.10;7.70;;;;;;;-1.76;100.00;99707.39;109957;1280;22424;-65
2023/01/29 20:49:05;;;;;;;14.70;8.20;;;;;;;-1.71;100.00;99703.48;110060;1280;22409;-65
2023/01/29 20:51:35;;;;;;;12.60;7.40;;;;;;;-1.70;100.00;99699.14;110063;1280;22864;-65
2023/01/29 20:54:03;;;;;;;13.60;8.10;;;;;;;-1.71;100.00;99699.91;110016;1273;22314;-65
2023/01/29 20:56:31;;;;;;;11.30;7.10;;;;;;;-1.75;100.00;99697.52;109993;1280;23375;-65
2023/01/29 20:59:08;;;;;;;13.30;7.70;;;;;;;-1.76;100.00;99705.20;109981;1280;23323;-66
2023/01/29 21:01:36;;;;;;;10.10;6.50;;;;;;;-1.80;100.00;99699.23;109998;1280;22397;-66
2023/01/29 21:04:04;;;;;;;12.80;6.90;;;;;;;-1.80;100.00;99695.56;110016;1280;22254;-65
2023/01/29 21:06:32;;;;;;;11.80;6.80;;;;;;;-1.78;100.00;99690.98;110010;1280;22224;-65
2023/01/29 21:09:02;;;;;;;11.70;7.40;;;;;;;-1.72;100.00;99690.96;110003;1280;22434;-65
2023/01/29 21:11:32;;;;;;;11.40;6.70;;;;;;;-1.71;100.00;99692.54;110009;1280;22190;-65
2023/01/29 21:14:00;;;;;;;12.70;7.30;;;;;;;-1.73;100.00;99684.62;110032;1280;22253;-65
2023/01/29 21:16:29;;;;;;;11.90;7.10;;;;;;;-1.75;100.00;99680.67;110014;1280;22565;-65
2023/01/29 21:18:57;;;;;;;11.60;7.30;;;;;;;-1.77;100.00;99682.13;110010;1280;22390;-65
2023/01/29 21:21:26;;;;;;;12.10;7.00;;;;;;;-1.79;100.00;99682.02;110035;1280;22248;-65
2023/01/29 21:23:54;;;;;;;13.20;6.80;;;;;;;-1.80;100.00;99677.67;107455;1280;22877;-64
2023/01/29 21:26:22;;;;;;;10.40;6.60;;;;;;;-1.75;100.00;99669.63;106624;1280;25336;-64
2023/01/29 21:28:51;;;;;;;13.30;7.00;;;;;;;-1.71;100.00;99669.38;108367;1280;25367;-64
2023/01/29 21:31:20;;;;;;;10.60;5.70;;;;;;;-1.72;100.00;99664.92;106713;1280;22811;-64
2023/01/29 21:33:49;;;;;;;10.00;6.30;;;;;;;-1.76;100.00;99666.54;106926;1275;22552;-64
2023/01/29 21:36:17;;;;;;;10.30;5.80;;;;;;;-1.80;100.00;99661.73;106946;1280;25355;-64
2023/01/29 21:38:45;;;;;;;10.10;6.20;;;;;;;-1.84;100.00;99660.64;106534;1280;25298;-64
2023/01/29 21:41:14;;;;;;;11.90;6.70;;;;;;;-1.88;100.00;99670.46;106764;1280;22729;-65
2023/01/29 21:43:43;;;;;;;10.00;6.20;;;;;;;-1.93;100.00;99676.50;106370;1279;25363;-64
2023/01/29 21:46:12;;;;;;;13.80;7.70;;;;;;;-1.95;100.00;99668.41;106600;1267;22549;-64
2023/01/29 21:48:41;;;;;;;13.30;7.90;;;;;;;-1.90;100.00;99668.48;106482;1279;26494;-64
2023/01/29 21:51:09;;;;;;;11.60;7.30;;;;;;;-1.84;100.00;99670.88;106724;1279;23910;-64
2023/01/29 21:53:37;;;;;;;12.00;7.30;;;;;;;-1.86;100.00;99667.93;106468;1279;23726;-64
2023/01/29 21:56:06;;;;;;;11.80;7.10;;;;;;;-1.89;100.00;99664.87;106598;1279;25968;-64
2023/01/29 21:58:34;;;;;;;11.00;6.90;;;;;;;-1.92;100.00;99665.89;107171;1272;24365;-64
2023/01/29 22:01:22;;;;;;;11.60;7.10;;;;;;;-1.97;100.00;99661.21;106509;1280;25287;-64
2023/01/29 22:04:10;;;;;;;10.80;7.00;;;;;;;-2.01;100.00;99655.13;106793;1279;23269;-64
2023/01/29 22:06:39;;;;;;;10.80;6.70;;;;;;;-2.03;100.00;99657.84;106262;1279;25453;-64
2023/01/29 22:09:07;;;;;;;12.70;7.60;;;;;;;-1.99;100.00;99656.99;106176;1280;25339;-64
2023/01/29 22:11:40;;;;;;;11.80;6.70;;;;;;;-1.94;100.00;99652.86;106202;1280;25537;-64
2023/01/29 22:14:08;;;;;;;11.10;6.70;;;;;;;-1.93;100.00;99653.30;110095;1279;22284;-65
2023/01/29 22:16:38;;;;;;;9.20;5.90;;;;;;;-1.95;100.00;99647.05;110068;1280;22723;-65
2023/01/29 22:19:07;;;;;;;12.60;7.90;;;;;;;-1.95;100.00;99643.33;110066;1279;22896;-65
2023/01/29 22:21:35;;;;;;;11.50;7.10;;;;;;;-1.91;100.00;99640.39;110071;1280;22308;-65
2023/01/29 22:24:04;;;;;;;9.70;6.10;;;;;;;-1.88;100.00;99637.67;110412;1276;22205;-65
2023/01/29 22:26:32;;;;;;;12.10;6.60;;;;;;;-1.87;100.00;99630.08;110361;1276;22218;-65
2023/01/29 22:29:01;;;;;;;11.90;7.00;;;;;;;-1.87;100.00;99631.77;110361;1276;22200;-65
2023/01/29 22:31:29;;;;;;;15.00;8.70;;;;;;;-1.87;100.00;99632.58;110362;1276;23059;-65
2023/01/29 22:33:57;;;;;;;12.80;7.60;;;;;;;-1.81;100.00;99634.11;110358;1275;23208;-65
2023/01/29 22:36:25;;;;;;;11.70;7.30;;;;;;;-1.74;100.00;99634.61;110373;1275;22279;-65
2023/01/29 22:38:54;;;;;;;11.80;7.50;;;;;;;-1.73;100.00;99631.45;110381;1275;23094;-65
2023/01/29 22:41:22;;;;;;;10.90;7.10;;;;;;;-1.74;100.00;99631.23;110387;1275;23019;-65
2023/01/29 22:43:50;;;;;;;11.10;7.00;;;;;;;-1.74;100.00;99625.70;110351;1275;23400;-65
2023/01/29 22:46:18;;;;;;;11.40;6.80;;;;;;;-1.73;100.00;99626.12;110343;1272;23013;-65
2023/01/29 22:48:47;;;;;;;13.80;7.50;;;;;;;-1.75;100.00;99625.86;110404;1275;22460;-65
2023/01/29 22:51:15;;;;;;;13.90;8.30;;;;;;;-1.77;100.00;99627.44;110387;1275;22302;-65
2023/01/29 22:53:53;;;;;;;12.90;7.70;;;;;;;-1.78;100.00;99628.92;110358;1275;23222;-65
2023/01/29 22:56:24;;;;;;;14.70;8.40;;;;;;;-1.78;100.00;99623.73;110420;1276;22898;-65
2023/01/29 22:58:53;;;;;;;12.90;7.20;;;;;;;-1.72;100.00;99615.16;110431;1275;22406;-65
2023/01/29 23:01:27;;;;;;;10.90;6.20;;;;;;;-1.65;100.00;99614.06;109709;1275;22533;-65
2023/01/29 23:03:56;;;;;;;9.60;5.90;;;;;;;-1.64;100.00;99603.02;110375;1275;22200;-65
2023/01/29 23:06:24;;;;;;;11.30;6.50;;;;;;;-1.67;100.00;99597.01;110353;1275;22283;-65
2023/01/29 23:08:52;;;;;;;22.00;10.70;;;;;;;-1.72;100.00;99602.27;110399;1276;22524;-65
2023/01/29 23:11:22;;;;;;;18.10;8.70;;;;;;;-1.73;100.00;99603.29;110399;1275;22234;-65
2023/01/29 23:13:53;;;;;;;14.80;7.70;;;;;;;-1.73;100.00;99599.10;110343;1275;23474;-65
2023/01/29 23:16:23;;;;;;;9.50;5.80;;;;;;;-1.71;100.00;99590.65;110345;1275;22926;-65
2023/01/29 23:18:55;;;;;;;8.50;5.30;;;;;;;-1.64;100.00;99590.81;110395;1275;22343;-65
2023/01/29 23:21:23;;;;;;;9.00;5.70;;;;;;;-1.62;100.00;99588.70;110401;1275;22320;-65
2023/01/29 23:23:57;;;;;;;18.20;10.10;;;;;;;-1.63;100.00;99583.03;110345;1275;23253;-65
2023/01/29 23:29:29;;;;;;;11.70;7.10;;;;;;;-1.65;100.00;99571.65;109925;1277;23175;-65
2023/01/29 23:31:57;;;;;;;10.30;6.20;;;;;;;-1.67;100.00;99571.80;110269;1275;22466;-65
2023/01/29 23:34:25;;;;;;;9.10;5.50;;;;;;;-1.67;100.00;99574.76;110369;1275;23060;-65
2023/01/29 23:36:53;;;;;;;8.50;5.50;;;;;;;-1.63;100.00;99571.23;110397;1275;22409;-65
2023/01/29 23:39:21;;;;;;;9.70;5.30;;;;;;;-1.57;100.00;99566.88;110364;1275;22338;-65
2023/01/29 23:41:49;;;;;;;8.40;5.30;;;;;;;-1.55;100.00;99559.61;110377;1274;23139;-65
